^^
Datos históricos de la estación: Murcia-Puente Tocinos
Diario Informe para Enero 17, 2020 Unidades:  Ambas    Inglés   Métrico
Diario Semanal Mensual Anual Configurable
  Máximo: Mínimo: Media:
Temperatura: 67.5 °F /  19.7 °C 40.8 °F /  4.9 °C 53.8 °F /  12.1 °C
Punto de rocio: 42.1 °F /  5.6 °C 35.1 °F /  1.7 °C 39 °F /  3.9 °C
Humedad: 80% 36% 60%
Velocidad viento: 13mph /  20.9km/h - 4.4mph /  7.1km/h
Racha viento: 23mph /  37.0km/h - -
Viento- - SSW
Presión: 30.5 in /  1031.1 hPa 30.3 in /  1027.2 hPa -
Precipitación: 0 in /  0.0 mm    
Historical Graphs
 
 
Tabla de datos para Enero 17, 2020
Hora Temperatura Punto de rocio Presión Viento Velocidad viento Racha viento Humedad Intensidad lluvia(por hora) Nubes
00:00 50 °F /  10.0 °C 41 °F /  5.0 °C 30.3in /  1027.6hPa SW 5mph /  8.0km/h 6mph /  9.7km/h 71% 0in /  0.0mm CLR
00:05 49.8 °F /  9.9 °C 40.8 °F /  4.9 °C 30.3in /  1027.6hPa SW 5mph /  8.0km/h 7mph /  11.3km/h 71% 0in /  0.0mm CLR
00:10 49.8 °F /  9.9 °C 40.8 °F /  4.9 °C 30.4in /  1027.7hPa SW 5mph /  8.0km/h 7mph /  11.3km/h 71% 0in /  0.0mm CLR
00:15 49.6 °F /  9.8 °C 40.6 °F /  4.8 °C 30.4in /  1027.7hPa SW 5mph /  8.0km/h 6mph /  9.7km/h 71% 0in /  0.0mm CLR
00:20 49.6 °F /  9.8 °C 41 °F /  5.0 °C 30.4in /  1027.7hPa SW 5mph /  8.0km/h 6mph /  9.7km/h 72% 0in /  0.0mm CLR
00:25 49.6 °F /  9.8 °C 41 °F /  5.0 °C 30.3in /  1027.6hPa SSW 5mph /  8.0km/h 6mph /  9.7km/h 72% 0in /  0.0mm CLR
00:30 49.6 °F /  9.8 °C 40.6 °F /  4.8 °C 30.3in /  1027.6hPa SSW 5mph /  8.0km/h 6mph /  9.7km/h 71% 0in /  0.0mm CLR
00:35 49.6 °F /  9.8 °C 40.6 °F /  4.8 °C 30.3in /  1027.6hPa SSW 5mph /  8.0km/h 6mph /  9.7km/h 71% 0in /  0.0mm CLR
00:40 49.5 °F /  9.7 °C 40.5 °F /  4.7 °C 30.3in /  1027.5hPa South 5mph /  8.0km/h 7mph /  11.3km/h 71% 0in /  0.0mm CLR
00:45 49.3 °F /  9.6 °C 40.3 °F /  4.6 °C 30.3in /  1027.5hPa South 5mph /  8.0km/h 9mph /  14.5km/h 71% 0in /  0.0mm CLR
00:50 48.9 °F /  9.4 °C 40.3 °F /  4.6 °C 30.3in /  1027.5hPa South 5mph /  8.0km/h 9mph /  14.5km/h 72% 0in /  0.0mm CLR
00:55 48.7 °F /  9.3 °C 40.5 °F /  4.7 °C 30.3in /  1027.2hPa SSW 6mph /  9.7km/h 9mph /  14.5km/h 73% 0in /  0.0mm CLR
01:00 48.7 °F /  9.3 °C 40.5 °F /  4.7 °C 30.3in /  1027.2hPa SSW 6mph /  9.7km/h 9mph /  14.5km/h 73% 0in /  0.0mm CLR
01:05 48.7 °F /  9.3 °C 40.5 °F /  4.7 °C 30.3in /  1027.2hPa SSW 6mph /  9.7km/h 8mph /  12.9km/h 73% 0in /  0.0mm CLR
01:10 48.7 °F /  9.3 °C 40.1 °F /  4.5 °C 30.3in /  1027.2hPa SSW 6mph /  9.7km/h 7mph /  11.3km/h 72% 0in /  0.0mm CLR
01:15 48.7 °F /  9.3 °C 40.1 °F /  4.5 °C 30.3in /  1027.2hPa SSW 5mph /  8.0km/h 5mph /  8.0km/h 72% 0in /  0.0mm CLR
01:20 48.6 °F /  9.2 °C 40.3 °F /  4.6 °C 30.3in /  1027.2hPa SSW 5mph /  8.0km/h 7mph /  11.3km/h 73% 0in /  0.0mm CLR
01:25 48.4 °F /  9.1 °C 40.1 °F /  4.5 °C 30.3in /  1027.5hPa SW 3mph /  4.8km/h 7mph /  11.3km/h 73% 0in /  0.0mm CLR
01:30 48.4 °F /  9.1 °C 39.7 °F /  4.3 °C 30.3in /  1027.5hPa SW 3mph /  4.8km/h 6mph /  9.7km/h 72% 0in /  0.0mm CLR
01:35 48.4 °F /  9.1 °C 39.7 °F /  4.3 °C 30.3in /  1027.5hPa SSW 5mph /  8.0km/h 7mph /  11.3km/h 72% 0in /  0.0mm CLR
01:40 48 °F /  8.9 °C 39.4 °F /  4.1 °C 30.3in /  1027.5hPa SSE 5mph /  8.0km/h 7mph /  11.3km/h 72% 0in /  0.0mm CLR
01:45 47.7 °F /  8.7 °C 39.4 °F /  4.1 °C 30.3in /  1027.5hPa SSE 5mph /  8.0km/h 9mph /  14.5km/h 73% 0in /  0.0mm CLR
01:50 47.1 °F /  8.4 °C 39.4 °F /  4.1 °C 30.3in /  1027.5hPa SSE 5mph /  8.0km/h 7mph /  11.3km/h 74% 0in /  0.0mm CLR
01:55 46.9 °F /  8.3 °C 39.4 °F /  4.1 °C 30.3in /  1027.5hPa SSE 5mph /  8.0km/h 8mph /  12.9km/h 75% 0in /  0.0mm CLR
02:00 46.8 °F /  8.2 °C 39.4 °F /  4.1 °C 30.3in /  1027.5hPa South 5mph /  8.0km/h 6mph /  9.7km/h 75% 0in /  0.0mm CLR
02:05 46.8 °F /  8.2 °C 39.4 °F /  4.1 °C 30.3in /  1027.5hPa SSE 5mph /  8.0km/h 7mph /  11.3km/h 75% 0in /  0.0mm CLR
02:10 46.6 °F /  8.1 °C 39.4 °F /  4.1 °C 30.3in /  1027.4hPa SSW 5mph /  8.0km/h 7mph /  11.3km/h 76% 0in /  0.0mm CLR
02:15 46.6 °F /  8.1 °C 39.4 °F /  4.1 °C 30.3in /  1027.4hPa SW 5mph /  8.0km/h 6mph /  9.7km/h 76% 0in /  0.0mm CLR
02:20 46.6 °F /  8.1 °C 39.4 °F /  4.1 °C 30.3in /  1027.4hPa SSW 5mph /  8.0km/h 6mph /  9.7km/h 76% 0in /  0.0mm CLR
02:25 46.6 °F /  8.1 °C 39 °F /  3.9 °C 30.3in /  1027.4hPa South 5mph /  8.0km/h 8mph /  12.9km/h 75% 0in /  0.0mm CLR
02:30 46.6 °F /  8.1 °C 39 °F /  3.9 °C 30.3in /  1027.4hPa South 5mph /  8.0km/h 6mph /  9.7km/h 75% 0in /  0.0mm CLR
02:35 46.4 °F /  8.0 °C 38.8 °F /  3.8 °C 30.3in /  1027.4hPa SSW 5mph /  8.0km/h 7mph /  11.3km/h 75% 0in /  0.0mm CLR
02:40 46.2 °F /  7.9 °C 39 °F /  3.9 °C 30.4in /  1027.7hPa SSW 5mph /  8.0km/h 6mph /  9.7km/h 76% 0in /  0.0mm CLR
02:45 46.2 °F /  7.9 °C 39 °F /  3.9 °C 30.4in /  1027.7hPa South 5mph /  8.0km/h 6mph /  9.7km/h 76% 0in /  0.0mm CLR
02:50 46 °F /  7.8 °C 38.8 °F /  3.8 °C 30.4in /  1027.7hPa South 5mph /  8.0km/h 9mph /  14.5km/h 76% 0in /  0.0mm CLR
02:55 45.9 °F /  7.7 °C 38.7 °F /  3.7 °C 30.3in /  1027.5hPa South 6mph /  9.7km/h 9mph /  14.5km/h 76% 0in /  0.0mm CLR
03:00 45.7 °F /  7.6 °C 38.5 °F /  3.6 °C 30.3in /  1027.5hPa South 6mph /  9.7km/h 7mph /  11.3km/h 76% 0in /  0.0mm CLR
03:05 45.3 °F /  7.4 °C 38.1 °F /  3.4 °C 30.3in /  1027.5hPa SSW 5mph /  8.0km/h 9mph /  14.5km/h 76% 0in /  0.0mm CLR
03:10 45.3 °F /  7.4 °C 38.1 °F /  3.4 °C 30.3in /  1027.6hPa SW 5mph /  8.0km/h 7mph /  11.3km/h 76% 0in /  0.0mm CLR
03:15 45.3 °F /  7.4 °C 38.1 °F /  3.4 °C 30.3in /  1027.6hPa SW 5mph /  8.0km/h 6mph /  9.7km/h 76% 0in /  0.0mm CLR
03:20 45.7 °F /  7.6 °C 38.5 °F /  3.6 °C 30.3in /  1027.6hPa SW 5mph /  8.0km/h 6mph /  9.7km/h 76% 0in /  0.0mm CLR
03:25 45.7 °F /  7.6 °C 38.1 °F /  3.4 °C 30.4in /  1027.7hPa SW 3mph /  4.8km/h 6mph /  9.7km/h 75% 0in /  0.0mm CLR
03:30 45.7 °F /  7.6 °C 38.1 °F /  3.4 °C 30.4in /  1027.7hPa WSW 3mph /  4.8km/h 5mph /  8.0km/h 75% 0in /  0.0mm CLR
03:35 45.7 °F /  7.6 °C 38.1 °F /  3.4 °C 30.4in /  1027.7hPa WSW 2mph /  3.2km/h 6mph /  9.7km/h 75% 0in /  0.0mm CLR
03:40 45.7 °F /  7.6 °C 38.1 °F /  3.4 °C 30.4in /  1027.8hPa WSW 2mph /  3.2km/h 5mph /  8.0km/h 75% 0in /  0.0mm CLR
03:45 45.5 °F /  7.5 °C 38.1 °F /  3.4 °C 30.4in /  1027.8hPa SW 2mph /  3.2km/h 6mph /  9.7km/h 75% 0in /  0.0mm CLR
03:50 45.5 °F /  7.5 °C 38.1 °F /  3.4 °C 30.4in /  1027.8hPa South 2mph /  3.2km/h 6mph /  9.7km/h 75% 0in /  0.0mm CLR
03:55 45.3 °F /  7.4 °C 37.9 °F /  3.3 °C 30.4in /  1027.8hPa South 3mph /  4.8km/h 6mph /  9.7km/h 75% 0in /  0.0mm CLR
04:00 45.1 °F /  7.3 °C 37.8 °F /  3.2 °C 30.4in /  1027.8hPa South 3mph /  4.8km/h 6mph /  9.7km/h 75% 0in /  0.0mm CLR
04:05 45 °F /  7.2 °C 37.8 °F /  3.2 °C 30.4in /  1027.8hPa SSW 3mph /  4.8km/h 7mph /  11.3km/h 76% 0in /  0.0mm CLR
04:10 45 °F /  7.2 °C 37.8 °F /  3.2 °C 30.4in /  1028.0hPa SSW 3mph /  4.8km/h 7mph /  11.3km/h 76% 0in /  0.0mm CLR
04:15 44.8 °F /  7.1 °C 37.8 °F /  3.2 °C 30.4in /  1028.0hPa South 4.3mph /  6.9km/h 5.8mph /  9.3km/h 76% 0in /  0.0mm CLR
04:20 44.8 °F /  7.1 °C 37.6 °F /  3.1 °C 30.4in /  1028.0hPa South 5mph /  8.0km/h 7mph /  11.3km/h 76% 0in /  0.0mm CLR
04:25 44.4 °F /  6.9 °C 37.2 °F /  2.9 °C 30.4in /  1027.7hPa South 5mph /  8.0km/h 8mph /  12.9km/h 76% 0in /  0.0mm CLR
04:30 44.1 °F /  6.7 °C 37.2 °F /  2.9 °C 30.4in /  1027.7hPa South 4.7mph /  7.6km/h 6.9mph /  11.1km/h 77% 0in /  0.0mm CLR
04:35 43.9 °F /  6.6 °C 37 °F /  2.8 °C 30.4in /  1027.7hPa SSE 5.2mph /  8.4km/h 4.6mph /  7.4km/h 77% 0in /  0.0mm CLR
04:40 43.5 °F /  6.4 °C 36.9 °F /  2.7 °C 30.3in /  1027.6hPa SSE 5mph /  8.0km/h 6mph /  9.7km/h 77% 0in /  0.0mm CLR
04:45 43.3 °F /  6.3 °C 36.9 °F /  2.7 °C 30.3in /  1027.6hPa South 3mph /  4.8km/h 6mph /  9.7km/h 78% 0in /  0.0mm CLR
04:50 43.3 °F /  6.3 °C 37.2 °F /  2.9 °C 30.3in /  1027.6hPa SW 3mph /  4.8km/h 5mph /  8.0km/h 79% 0in /  0.0mm CLR
04:55 43.3 °F /  6.3 °C 37.2 °F /  2.9 °C 30.4in /  1027.8hPa WSW 2mph /  3.2km/h 6mph /  9.7km/h 79% 0in /  0.0mm CLR
05:00 43.5 °F /  6.4 °C 37.4 °F /  3.0 °C 30.4in /  1027.8hPa SW 2mph /  3.2km/h 7mph /  11.3km/h 79% 0in /  0.0mm CLR
05:05 43.5 °F /  6.4 °C 37.4 °F /  3.0 °C 30.4in /  1027.8hPa SSW 5mph /  8.0km/h 7mph /  11.3km/h 79% 0in /  0.0mm CLR
05:10 43.5 °F /  6.4 °C 37 °F /  2.8 °C 30.3in /  1027.4hPa South 5mph /  8.0km/h 9mph /  14.5km/h 78% 0in /  0.0mm CLR
05:15 43.5 °F /  6.4 °C 37 °F /  2.8 °C 30.3in /  1027.4hPa South 6mph /  9.7km/h 9mph /  14.5km/h 78% 0in /  0.0mm CLR
05:20 43.3 °F /  6.3 °C 36.7 °F /  2.6 °C 30.3in /  1027.4hPa SSE 6mph /  9.7km/h 10mph /  16.1km/h 77% 0in /  0.0mm CLR
05:25 43.2 °F /  6.2 °C 36.9 °F /  2.7 °C 30.3in /  1027.3hPa South 5mph /  8.0km/h 6mph /  9.7km/h 78% 0in /  0.0mm CLR
05:30 43.2 °F /  6.2 °C 36.9 °F /  2.7 °C 30.3in /  1027.3hPa SSW 5mph /  8.0km/h 7mph /  11.3km/h 78% 0in /  0.0mm CLR
05:35 43.3 °F /  6.3 °C 36.9 °F /  2.7 °C 30.3in /  1027.3hPa SW 5mph /  8.0km/h 7mph /  11.3km/h 78% 0in /  0.0mm CLR
05:40 43.3 °F /  6.3 °C 36.7 °F /  2.6 °C 30.3in /  1027.5hPa West 5mph /  8.0km/h 7mph /  11.3km/h 77% 0in /  0.0mm CLR
05:45 43.3 °F /  6.3 °C 36.7 °F /  2.6 °C 30.3in /  1027.5hPa WSW 5mph /  8.0km/h 7mph /  11.3km/h 77% 0in /  0.0mm CLR
05:50 43.3 °F /  6.3 °C 36.7 °F /  2.6 °C 30.3in /  1027.5hPa SW 5mph /  8.0km/h 6mph /  9.7km/h 77% 0in /  0.0mm CLR
05:55 43.5 °F /  6.4 °C 36.9 °F /  2.7 °C 30.3in /  1027.4hPa South 5mph /  8.0km/h 6mph /  9.7km/h 77% 0in /  0.0mm CLR
06:00 43.5 °F /  6.4 °C 36.5 °F /  2.5 °C 30.3in /  1027.4hPa SE 5mph /  8.0km/h 6mph /  9.7km/h 76% 0in /  0.0mm CLR
06:05 43.3 °F /  6.3 °C 36.3 °F /  2.4 °C 30.3in /  1027.4hPa SE 3mph /  4.8km/h 9mph /  14.5km/h 76% 0in /  0.0mm CLR
06:10 43 °F /  6.1 °C 36.3 °F /  2.4 °C 30.3in /  1027.5hPa SSE 3mph /  4.8km/h 8mph /  12.9km/h 77% 0in /  0.0mm CLR
06:15 42.4 °F /  5.8 °C 36.1 °F /  2.3 °C 30.3in /  1027.5hPa SSE 6mph /  9.7km/h 10mph /  16.1km/h 78% 0in /  0.0mm CLR
06:20 42.1 °F /  5.6 °C 36 °F /  2.2 °C 30.3in /  1027.5hPa South 6mph /  9.7km/h 6mph /  9.7km/h 79% 0in /  0.0mm CLR
06:25 42.1 °F /  5.6 °C 36 °F /  2.2 °C 30.3in /  1027.5hPa SSW 5mph /  8.0km/h 6mph /  9.7km/h 79% 0in /  0.0mm CLR
06:30 42.3 °F /  5.7 °C 36.1 °F /  2.3 °C 30.3in /  1027.5hPa SW 5mph /  8.0km/h 7mph /  11.3km/h 79% 0in /  0.0mm CLR
06:35 42.6 °F /  5.9 °C 36.7 °F /  2.6 °C 30.3in /  1027.5hPa SW 5mph /  8.0km/h 7mph /  11.3km/h 79% 0in /  0.0mm CLR
06:40 43 °F /  6.1 °C 36.7 °F /  2.6 °C 30.3in /  1027.5hPa SW 5mph /  8.0km/h 7mph /  11.3km/h 78% 0in /  0.0mm CLR
06:45 43.2 °F /  6.2 °C 36.3 °F /  2.4 °C 30.3in /  1027.5hPa WSW 5mph /  8.0km/h 7mph /  11.3km/h 77% 0in /  0.0mm CLR
06:50 43 °F /  6.1 °C 36.3 °F /  2.4 °C 30.3in /  1027.5hPa West 5mph /  8.0km/h 5mph /  8.0km/h 77% 0in /  0.0mm CLR
06:55 43 °F /  6.1 °C 36.3 °F /  2.4 °C 30.3in /  1027.6hPa West 2mph /  3.2km/h 5mph /  8.0km/h 77% 0in /  0.0mm CLR
07:00 43 °F /  6.1 °C 36.3 °F /  2.4 °C 30.3in /  1027.6hPa WSW 2mph /  3.2km/h 7mph /  11.3km/h 77% 0in /  0.0mm CLR
07:05 43.3 °F /  6.3 °C 36.3 °F /  2.4 °C 30.3in /  1027.6hPa WSW 3mph /  4.8km/h 6mph /  9.7km/h 76% 0in /  0.0mm CLR
07:10 43.3 °F /  6.3 °C 36 °F /  2.2 °C 30.4in /  1028.0hPa SW 3mph /  4.8km/h 5mph /  8.0km/h 75% 0in /  0.0mm CLR
07:15 43.3 °F /  6.3 °C 36 °F /  2.2 °C 30.4in /  1028.0hPa SSE 3mph /  4.8km/h 6mph /  9.7km/h 75% 0in /  0.0mm CLR
07:20 42.4 °F /  5.8 °C 35.4 °F /  1.9 °C 30.4in /  1028.0hPa SE 3mph /  4.8km/h 8mph /  12.9km/h 76% 0in /  0.0mm CLR
07:25 42.1 °F /  5.6 °C 35.2 °F /  1.8 °C 30.4in /  1028.2hPa SSE 5mph /  8.0km/h 7mph /  11.3km/h 77% 0in /  0.0mm CLR
07:30 41.5 °F /  5.3 °C 35.2 °F /  1.8 °C 30.4in /  1028.2hPa SSE 5mph /  8.0km/h 8mph /  12.9km/h 78% 0in /  0.0mm CLR
07:35 41.2 °F /  5.1 °C 35.1 °F /  1.7 °C 30.4in /  1028.2hPa SSE 6mph /  9.7km/h 10mph /  16.1km/h 79% 0in /  0.0mm CLR
07:40 40.8 °F /  4.9 °C 35.1 °F /  1.7 °C 30.4in /  1028.3hPa South 6mph /  9.7km/h 6mph /  9.7km/h 80% 0in /  0.0mm CLR
07:45 41 °F /  5.0 °C 35.2 °F /  1.8 °C 30.4in /  1028.3hPa South 5mph /  8.0km/h 7mph /  11.3km/h 80% 0in /  0.0mm CLR
07:50 41.2 °F /  5.1 °C 35.4 °F /  1.9 °C 30.4in /  1028.3hPa South 5mph /  8.0km/h 5mph /  8.0km/h 80% 0in /  0.0mm CLR
07:55 41.5 °F /  5.3 °C 36 °F /  2.2 °C 30.4in /  1028.6hPa SSE 3mph /  4.8km/h 7mph /  11.3km/h 80% 0in /  0.0mm CLR
08:00 42.1 °F /  5.6 °C 36 °F /  2.2 °C 30.4in /  1028.6hPa South 3mph /  4.8km/h 8mph /  12.9km/h 79% 0in /  0.0mm CLR
08:05 42.4 °F /  5.8 °C 36.1 °F /  2.3 °C 30.4in /  1028.6hPa SSW 5mph /  8.0km/h 7mph /  11.3km/h 78% 0in /  0.0mm CLR
08:10 43 °F /  6.1 °C 36.3 °F /  2.4 °C 30.4in /  1028.9hPa South 5mph /  8.0km/h 7mph /  11.3km/h 77% 0in /  0.0mm CLR
08:15 43 °F /  6.1 °C 36.3 °F /  2.4 °C 30.4in /  1028.9hPa SE 5mph /  8.0km/h 9mph /  14.5km/h 77% 0in /  0.0mm CLR
08:20 42.8 °F /  6.0 °C 36.1 °F /  2.3 °C 30.4in /  1028.9hPa SE 5mph /  8.0km/h 10mph /  16.1km/h 77% 0in /  0.0mm CLR
08:25 42.4 °F /  5.8 °C 36.1 °F /  2.3 °C 30.4in /  1028.9hPa SSE 6mph /  9.7km/h 10mph /  16.1km/h 78% 0in /  0.0mm CLR
08:30 42.3 °F /  5.7 °C 36.1 °F /  2.3 °C 30.4in /  1028.9hPa SSE 6mph /  9.7km/h 11mph /  17.7km/h 79% 0in /  0.0mm CLR
08:35 42.1 °F /  5.6 °C 36 °F /  2.2 °C 30.4in /  1028.9hPa SSE 7mph /  11.3km/h 12mph /  19.3km/h 79% 0in /  0.0mm CLR
08:40 42.3 °F /  5.7 °C 36.1 °F /  2.3 °C 30.4in /  1029.0hPa SSE 7mph /  11.3km/h 9mph /  14.5km/h 79% 0in /  0.0mm CLR
08:45 42.4 °F /  5.8 °C 36.3 °F /  2.4 °C 30.4in /  1029.0hPa SSE 6mph /  9.7km/h 8mph /  12.9km/h 79% 0in /  0.0mm CLR
08:50 42.6 °F /  5.9 °C 36.7 °F /  2.6 °C 30.4in /  1029.0hPa SSE 6mph /  9.7km/h 8mph /  12.9km/h 79% 0in /  0.0mm CLR
08:55 43.2 °F /  6.2 °C 36.7 °F /  2.6 °C 30.4in /  1028.8hPa South 6mph /  9.7km/h 7mph /  11.3km/h 78% 0in /  0.0mm CLR
09:00 43.5 °F /  6.4 °C 36.9 °F /  2.7 °C 30.4in /  1028.8hPa SSW 6mph /  9.7km/h 6mph /  9.7km/h 77% 0in /  0.0mm CLR
09:05 43.9 °F /  6.6 °C 36.9 °F /  2.7 °C 30.4in /  1028.8hPa SSW 5mph /  8.0km/h 6mph /  9.7km/h 76% 0in /  0.0mm CLR
09:10 44.2 °F /  6.8 °C 36.9 °F /  2.7 °C 30.4in /  1028.9hPa SSW 5mph /  8.0km/h 6mph /  9.7km/h 75% 0in /  0.0mm CLR
09:15 44.4 °F /  6.9 °C 37 °F /  2.8 °C 30.4in /  1028.9hPa WSW 3mph /  4.8km/h 7mph /  11.3km/h 75% 0in /  0.0mm CLR
09:20 45 °F /  7.2 °C 37 °F /  2.8 °C 30.4in /  1028.9hPa WSW 3mph /  4.8km/h 6mph /  9.7km/h 74% 0in /  0.0mm CLR
09:25 45.1 °F /  7.3 °C 37 °F /  2.8 °C 30.4in /  1029.2hPa SW 5mph /  8.0km/h 7mph /  11.3km/h 73% 0in /  0.0mm CLR
09:30 45.7 °F /  7.6 °C 36.9 °F /  2.7 °C 30.4in /  1029.2hPa SW 5mph /  8.0km/h 9mph /  14.5km/h 71% 0in /  0.0mm CLR
09:35 46 °F /  7.8 °C 36.9 °F /  2.7 °C 30.4in /  1029.2hPa SSW 6mph /  9.7km/h 8mph /  12.9km/h 70% 0in /  0.0mm CLR
09:40 46.2 °F /  7.9 °C 37 °F /  2.8 °C 30.4in /  1029.3hPa SSW 6mph /  9.7km/h 6mph /  9.7km/h 70% 0in /  0.0mm CLR
09:45 46.6 °F /  8.1 °C 37.2 °F /  2.9 °C 30.4in /  1029.3hPa SSW 3mph /  4.8km/h 5mph /  8.0km/h 70% 0in /  0.0mm CLR
09:50 46.9 °F /  8.3 °C 37.2 °F /  2.9 °C 30.4in /  1029.3hPa WSW 3mph /  4.8km/h 5mph /  8.0km/h 69% 0in /  0.0mm CLR
09:55 47.5 °F /  8.6 °C 37.4 °F /  3.0 °C 30.4in /  1029.6hPa West 2mph /  3.2km/h 5mph /  8.0km/h 68% 0in /  0.0mm CLR
10:00 47.8 °F /  8.8 °C 37 °F /  2.8 °C 30.4in /  1029.6hPa SW 2mph /  3.2km/h 6mph /  9.7km/h 66% 0in /  0.0mm CLR
10:05 47.8 °F /  8.8 °C 37 °F /  2.8 °C 30.4in /  1029.6hPa SW 3mph /  4.8km/h 7mph /  11.3km/h 66% 0in /  0.0mm CLR
10:10 48 °F /  8.9 °C 37.2 °F /  2.9 °C 30.4in /  1029.6hPa SSW 3mph /  4.8km/h 7mph /  11.3km/h 66% 0in /  0.0mm CLR
10:15 48.6 °F /  9.2 °C 37.2 °F /  2.9 °C 30.4in /  1029.6hPa South 5mph /  8.0km/h 9mph /  14.5km/h 65% 0in /  0.0mm CLR
10:20 48.9 °F /  9.4 °C 37.8 °F /  3.2 °C 30.4in /  1029.6hPa SSE 5mph /  8.0km/h 8mph /  12.9km/h 65% 0in /  0.0mm CLR
10:25 49.3 °F /  9.6 °C 37.6 °F /  3.1 °C 30.4in /  1029.4hPa SSE 5mph /  8.0km/h 7mph /  11.3km/h 64% 0in /  0.0mm CLR
10:30 49.5 °F /  9.7 °C 37.2 °F /  2.9 °C 30.4in /  1029.4hPa South 5mph /  8.0km/h 8mph /  12.9km/h 63% 0in /  0.0mm CLR
10:35 49.5 °F /  9.7 °C 37 °F /  2.8 °C 30.4in /  1029.4hPa SSW 5mph /  8.0km/h 8mph /  12.9km/h 62% 0in /  0.0mm CLR
10:40 49.6 °F /  9.8 °C 37.2 °F /  2.9 °C 30.4in /  1029.8hPa SSW 5mph /  8.0km/h 5mph /  8.0km/h 62% 0in /  0.0mm CLR
10:45 50.2 °F /  10.1 °C 37.6 °F /  3.1 °C 30.4in /  1029.8hPa SW 3mph /  4.8km/h 6mph /  9.7km/h 62% 0in /  0.0mm CLR
10:50 50.2 °F /  10.1 °C 37.8 °F /  3.2 °C 30.4in /  1029.8hPa South 3.1mph /  5.0km/h 6.2mph /  10.0km/h 62% 0in /  0.0mm CLR
10:55 50.5 °F /  10.3 °C 37.9 °F /  3.3 °C 30.4in /  1029.9hPa SW 3mph /  4.8km/h 7mph /  11.3km/h 62% 0in /  0.0mm CLR
11:00 51.1 °F /  10.6 °C 38.1 °F /  3.4 °C 30.4in /  1029.9hPa SSW 3mph /  4.8km/h 7mph /  11.3km/h 61% 0in /  0.0mm CLR
11:05 51.4 °F /  10.8 °C 38.5 °F /  3.6 °C 30.4in /  1029.9hPa SSW 5mph /  8.0km/h 7mph /  11.3km/h 61% 0in /  0.0mm CLR
11:10 52 °F /  11.1 °C 38.5 °F /  3.6 °C 30.4in /  1030.2hPa SSW 5mph /  8.0km/h 7mph /  11.3km/h 60% 0in /  0.0mm CLR
11:15 52.3 °F /  11.3 °C 38.5 °F /  3.6 °C 30.4in /  1030.2hPa South 5mph /  8.0km/h 8mph /  12.9km/h 59% 0in /  0.0mm CLR
11:20 52.9 °F /  11.6 °C 38.8 °F /  3.8 °C 30.4in /  1030.2hPa South 5mph /  8.0km/h 7mph /  11.3km/h 59% 0in /  0.0mm CLR
11:25 53.2 °F /  11.8 °C 38.8 °F /  3.8 °C 30.4in /  1030.3hPa SSE 5mph /  8.0km/h 9mph /  14.5km/h 58% 0in /  0.0mm CLR
11:30 53.8 °F /  12.1 °C 38.8 °F /  3.8 °C 30.4in /  1030.3hPa South 5mph /  8.0km/h 8mph /  12.9km/h 57% 0in /  0.0mm CLR
11:35 54 °F /  12.2 °C 38.7 °F /  3.7 °C 30.4in /  1030.3hPa South 5mph /  8.0km/h 9mph /  14.5km/h 56% 0in /  0.0mm CLR
11:40 54.3 °F /  12.4 °C 38.5 °F /  3.6 °C 30.4in /  1030.4hPa SSW 5mph /  8.0km/h 8mph /  12.9km/h 55% 0in /  0.0mm CLR
11:45 54.7 °F /  12.6 °C 38.5 °F /  3.6 °C 30.4in /  1030.4hPa SSW 5mph /  8.0km/h 8mph /  12.9km/h 54% 0in /  0.0mm CLR
11:50 55 °F /  12.8 °C 38.7 °F /  3.7 °C 30.4in /  1030.4hPa SSW 5mph /  8.0km/h 7mph /  11.3km/h 54% 0in /  0.0mm CLR
11:55 55.8 °F /  13.2 °C 38.3 °F /  3.5 °C 30.4in /  1030.3hPa South 5mph /  8.0km/h 8mph /  12.9km/h 52% 0in /  0.0mm CLR
12:00 56.1 °F /  13.4 °C 38.3 °F /  3.5 °C 30.4in /  1030.3hPa South 5mph /  8.0km/h 8mph /  12.9km/h 51% 0in /  0.0mm CLR
12:05 56.8 °F /  13.8 °C 38.8 °F /  3.8 °C 30.4in /  1030.3hPa South 5mph /  8.0km/h 8mph /  12.9km/h 51% 0in /  0.0mm CLR
12:10 57.4 °F /  14.1 °C 38.8 °F /  3.8 °C 30.4in /  1030.1hPa South 5mph /  8.0km/h 8mph /  12.9km/h 50% 0in /  0.0mm CLR
12:15 57.7 °F /  14.3 °C 38.7 °F /  3.7 °C 30.4in /  1030.1hPa South 5mph /  8.0km/h 9mph /  14.5km/h 49% 0in /  0.0mm CLR
12:20 57.7 °F /  14.3 °C 38.1 °F /  3.4 °C 30.4in /  1030.1hPa South 5mph /  8.0km/h 8mph /  12.9km/h 48% 0in /  0.0mm CLR
12:25 57.9 °F /  14.4 °C 38.8 °F /  3.8 °C 30.4in /  1029.8hPa SSE 6mph /  9.7km/h 7mph /  11.3km/h 49% 0in /  0.0mm CLR
12:30 58.5 °F /  14.7 °C 38.8 °F /  3.8 °C 30.4in /  1029.8hPa South 6mph /  9.7km/h 6mph /  9.7km/h 48% 0in /  0.0mm CLR
12:35 59.2 °F /  15.1 °C 38.5 °F /  3.6 °C 30.4in /  1029.8hPa SSW 3mph /  4.8km/h 6mph /  9.7km/h 46% 0in /  0.0mm CLR
12:40 59.5 °F /  15.3 °C 38.1 °F /  3.4 °C 30.4in /  1029.7hPa SSW 3mph /  4.8km/h 6mph /  9.7km/h 45% 0in /  0.0mm CLR
12:45 60.1 °F /  15.6 °C 38.7 °F /  3.7 °C 30.4in /  1029.7hPa SW 3mph /  4.8km/h 7mph /  11.3km/h 45% 0in /  0.0mm CLR
12:50 60.3 °F /  15.7 °C 38.1 °F /  3.4 °C 30.4in /  1029.7hPa WSW 3mph /  4.8km/h 6mph /  9.7km/h 44% 0in /  0.0mm CLR
12:55 60.6 °F /  15.9 °C 38.7 °F /  3.7 °C 30.4in /  1029.4hPa SW 3mph /  4.8km/h 6mph /  9.7km/h 44% 0in /  0.0mm CLR
13:00 61.2 °F /  16.2 °C 39 °F /  3.9 °C 30.4in /  1029.4hPa SSW 3mph /  4.8km/h 6mph /  9.7km/h 44% 0in /  0.0mm CLR
13:05 61.5 °F /  16.4 °C 38.8 °F /  3.8 °C 30.4in /  1029.4hPa SSW 3mph /  4.8km/h 7mph /  11.3km/h 43% 0in /  0.0mm CLR
13:10 62.1 °F /  16.7 °C 38.7 °F /  3.7 °C 30.4in /  1029.0hPa SSW 3mph /  4.8km/h 7mph /  11.3km/h 42% 0in /  0.0mm CLR
13:15 62.4 °F /  16.9 °C 39 °F /  3.9 °C 30.4in /  1029.0hPa South 5mph /  8.0km/h 6mph /  9.7km/h 42% 0in /  0.0mm CLR
13:20 63 °F /  17.2 °C 38.8 °F /  3.8 °C 30.4in /  1029.0hPa SSE 5mph /  8.0km/h 5mph /  8.0km/h 41% 0in /  0.0mm CLR
13:25 63.3 °F /  17.4 °C 38.7 °F /  3.7 °C 30.4in /  1028.8hPa SSE 3mph /  4.8km/h 7mph /  11.3km/h 40% 0in /  0.0mm CLR
13:30 63.3 °F /  17.4 °C 39.4 °F /  4.1 °C 30.4in /  1028.8hPa SSE 3mph /  4.8km/h 5mph /  8.0km/h 41% 0in /  0.0mm CLR
13:35 63.9 °F /  17.7 °C 39 °F /  3.9 °C 30.4in /  1028.8hPa SSE 3mph /  4.8km/h 6mph /  9.7km/h 40% 0in /  0.0mm CLR
13:40 64 °F /  17.8 °C 39.2 °F /  4.0 °C 30.4in /  1028.5hPa SSE 3mph /  4.8km/h 6mph /  9.7km/h 40% 0in /  0.0mm CLR
13:45 64.4 °F /  18.0 °C 38.8 °F /  3.8 °C 30.4in /  1028.5hPa SSE 3mph /  4.8km/h 5mph /  8.0km/h 39% 0in /  0.0mm CLR
13:50 64.8 °F /  18.2 °C 38.5 °F /  3.6 °C 30.4in /  1028.5hPa South 3mph /  4.8km/h 5mph /  8.0km/h 38% 0in /  0.0mm CLR
13:55 65.1 °F /  18.4 °C 38.8 °F /  3.8 °C 30.4in /  1028.2hPa SSE 2mph /  3.2km/h 7mph /  11.3km/h 38% 0in /  0.0mm CLR
14:00 65.1 °F /  18.4 °C 38.8 °F /  3.8 °C 30.4in /  1028.2hPa South 2mph /  3.2km/h 7mph /  11.3km/h 38% 0in /  0.0mm CLR
14:05 65.1 °F /  18.4 °C 38.1 °F /  3.4 °C 30.4in /  1028.2hPa South 5mph /  8.0km/h 7mph /  11.3km/h 37% 0in /  0.0mm CLR
14:10 65.3 °F /  18.5 °C 38.3 °F /  3.5 °C 30.4in /  1028.0hPa South 5mph /  8.0km/h 7mph /  11.3km/h 37% 0in /  0.0mm CLR
14:15 65.5 °F /  18.6 °C 38.5 °F /  3.6 °C 30.4in /  1028.0hPa SSW 5mph /  8.0km/h 7mph /  11.3km/h 37% 0in /  0.0mm CLR
14:20 65.8 °F /  18.8 °C 38.8 °F /  3.8 °C 30.4in /  1028.0hPa SSW 5mph /  8.0km/h 6mph /  9.7km/h 37% 0in /  0.0mm CLR
14:25 66 °F /  18.9 °C 38.3 °F /  3.5 °C 30.3in /  1027.6hPa South 3mph /  4.8km/h 6mph /  9.7km/h 36% 0in /  0.0mm CLR
14:30 66.2 °F /  19.0 °C 38.5 °F /  3.6 °C 30.3in /  1027.6hPa South 3mph /  4.8km/h 5mph /  8.0km/h 36% 0in /  0.0mm CLR
14:35 66.4 °F /  19.1 °C 38.7 °F /  3.7 °C 30.3in /  1027.6hPa SSW 2mph /  3.2km/h 3mph /  4.8km/h 36% 0in /  0.0mm CLR
14:40 66.6 °F /  19.2 °C 38.8 °F /  3.8 °C 30.3in /  1027.6hPa SW 2mph /  3.2km/h 5mph /  8.0km/h 36% 0in /  0.0mm CLR
14:45 66.4 °F /  19.1 °C 38.7 °F /  3.7 °C 30.3in /  1027.6hPa SW 2mph /  3.2km/h 5mph /  8.0km/h 36% 0in /  0.0mm CLR
14:50 66.4 °F /  19.1 °C 38.7 °F /  3.7 °C 30.3in /  1027.6hPa SW 2mph /  3.2km/h 4mph /  6.4km/h 36% 0in /  0.0mm CLR
14:55 66.4 °F /  19.1 °C 38.7 °F /  3.7 °C 30.3in /  1027.5hPa SSW 2mph /  3.2km/h 6mph /  9.7km/h 36% 0in /  0.0mm CLR
15:00 66.6 °F /  19.2 °C 38.8 °F /  3.8 °C 30.3in /  1027.5hPa SSE 2mph /  3.2km/h 8mph /  12.9km/h 36% 0in /  0.0mm CLR
15:05 66.6 °F /  19.2 °C 38.8 °F /  3.8 °C 30.3in /  1027.5hPa SSE 5mph /  8.0km/h 8mph /  12.9km/h 36% 0in /  0.0mm CLR
15:10 66.6 °F /  19.2 °C 38.8 °F /  3.8 °C 30.3in /  1027.4hPa SSE 4.3mph /  6.9km/h 6.4mph /  10.3km/h 36% 0in /  0.0mm CLR
15:15 66.6 °F /  19.2 °C 38.8 °F /  3.8 °C 30.3in /  1027.4hPa South 5mph /  8.0km/h 8mph /  12.9km/h 36% 0in /  0.0mm CLR
15:20 66.6 °F /  19.2 °C 38.8 °F /  3.8 °C 30.3in /  1027.4hPa South 4.3mph /  6.9km/h 6.9mph /  11.1km/h 36% 0in /  0.0mm CLR
15:25 66.7 °F /  19.3 °C 38.8 °F /  3.8 °C 30.3in /  1027.3hPa SSE 5mph /  8.0km/h 8mph /  12.9km/h 36% 0in /  0.0mm CLR
15:30 66.7 °F /  19.3 °C 38.8 °F /  3.8 °C 30.3in /  1027.3hPa SSE 5mph /  8.0km/h 11mph /  17.7km/h 36% 0in /  0.0mm CLR
15:35 66.7 °F /  19.3 °C 38.8 °F /  3.8 °C 30.3in /  1027.3hPa SSE 6mph /  9.7km/h 9mph /  14.5km/h 36% 0in /  0.0mm CLR
15:40 66.6 °F /  19.2 °C 38.8 °F /  3.8 °C 30.3in /  1027.2hPa South 6mph /  9.7km/h 7mph /  11.3km/h 36% 0in /  0.0mm CLR
15:45 66.9 °F /  19.4 °C 39 °F /  3.9 °C 30.3in /  1027.2hPa SSW 6mph /  9.7km/h 10mph /  16.1km/h 36% 0in /  0.0mm CLR
15:50 67.3 °F /  19.6 °C 39.4 °F /  4.1 °C 30.3in /  1027.2hPa SW 6mph /  9.7km/h 9mph /  14.5km/h 36% 0in /  0.0mm CLR
15:55 67.5 °F /  19.7 °C 39.6 °F /  4.2 °C 30.3in /  1027.3hPa WSW 5mph /  8.0km/h 7mph /  11.3km/h 36% 0in /  0.0mm CLR
16:00 67.5 °F /  19.7 °C 39.6 °F /  4.2 °C 30.3in /  1027.3hPa WSW 5mph /  8.0km/h 10mph /  16.1km/h 36% 0in /  0.0mm CLR
16:05 67.5 °F /  19.7 °C 40.3 °F /  4.6 °C 30.3in /  1027.3hPa WNW 5mph /  8.0km/h 21mph /  33.8km/h 37% 0in /  0.0mm CLR
16:10 67.3 °F /  19.6 °C 40.8 °F /  4.9 °C 30.3in /  1027.4hPa WNW 5mph /  8.0km/h 23mph /  37.0km/h 38% 0in /  0.0mm CLR
16:15 67.1 °F /  19.5 °C 40.6 °F /  4.8 °C 30.3in /  1027.4hPa WNW 13mph /  20.9km/h 18mph /  29.0km/h 38% 0in /  0.0mm CLR
16:20 66.9 °F /  19.4 °C 40.5 °F /  4.7 °C 30.3in /  1027.4hPa WNW 13mph /  20.9km/h 21mph /  33.8km/h 38% 0in /  0.0mm CLR
16:25 66.7 °F /  19.3 °C 40.3 °F /  4.6 °C 30.3in /  1027.4hPa NW 11.8mph /  19.0km/h 20.7mph /  33.3km/h 38% 0in /  0.0mm CLR
16:30 66.7 °F /  19.3 °C 41 °F /  5.0 °C 30.3in /  1027.4hPa WNW 12mph /  19.3km/h 19mph /  30.6km/h 39% 0in /  0.0mm CLR
16:35 66.6 °F /  19.2 °C 40.8 °F /  4.9 °C 30.3in /  1027.4hPa WNW 10mph /  16.1km/h 18mph /  29.0km/h 39% 0in /  0.0mm CLR
16:40 66.2 °F /  19.0 °C 40.5 °F /  4.7 °C 30.3in /  1027.4hPa WNW 10mph /  16.1km/h 21mph /  33.8km/h 39% 0in /  0.0mm CLR
16:45 66 °F /  18.9 °C 40.3 °F /  4.6 °C 30.3in /  1027.4hPa WNW 12mph /  19.3km/h 17mph /  27.4km/h 39% 0in /  0.0mm CLR
16:50 66.4 °F /  19.1 °C 40.6 °F /  4.8 °C 30.3in /  1027.4hPa WNW 12mph /  19.3km/h 15mph /  24.1km/h 39% 0in /  0.0mm CLR
16:55 66.4 °F /  19.1 °C 40.6 °F /  4.8 °C 30.3in /  1027.4hPa WNW 9mph /  14.5km/h 17mph /  27.4km/h 39% 0in /  0.0mm CLR
17:00 66.2 °F /  19.0 °C 40.5 °F /  4.7 °C 30.3in /  1027.4hPa WNW 9mph /  14.5km/h 14mph /  22.5km/h 39% 0in /  0.0mm CLR
17:05 66 °F /  18.9 °C 40.3 °F /  4.6 °C 30.3in /  1027.4hPa WNW 8mph /  12.9km/h 16mph /  25.7km/h 39% 0in /  0.0mm CLR
17:10 66 °F /  18.9 °C 40.3 °F /  4.6 °C 30.3in /  1027.6hPa WNW 8mph /  12.9km/h 9mph /  14.5km/h 39% 0in /  0.0mm CLR
17:15 65.8 °F /  18.8 °C 40.8 °F /  4.9 °C 30.3in /  1027.6hPa West 7mph /  11.3km/h 12mph /  19.3km/h 40% 0in /  0.0mm CLR
17:20 65.7 °F /  18.7 °C 40.6 °F /  4.8 °C 30.3in /  1027.6hPa West 7mph /  11.3km/h 14mph /  22.5km/h 40% 0in /  0.0mm CLR
17:25 65.7 °F /  18.7 °C 40.6 °F /  4.8 °C 30.4in /  1027.7hPa West 6mph /  9.7km/h 11mph /  17.7km/h 40% 0in /  0.0mm CLR
17:30 65.5 °F /  18.6 °C 40.5 °F /  4.7 °C 30.4in /  1027.7hPa WSW 6mph /  9.7km/h 11mph /  17.7km/h 40% 0in /  0.0mm CLR
17:35 65.5 °F /  18.6 °C 40.5 °F /  4.7 °C 30.4in /  1027.7hPa WSW 6mph /  9.7km/h 11mph /  17.7km/h 40% 0in /  0.0mm CLR
17:40 65.3 °F /  18.5 °C 41 °F /  5.0 °C 30.4in /  1027.8hPa WSW 6mph /  9.7km/h 10mph /  16.1km/h 41% 0in /  0.0mm CLR
17:45 65.1 °F /  18.4 °C 40.8 °F /  4.9 °C 30.4in /  1027.8hPa WSW 5mph /  8.0km/h 10mph /  16.1km/h 41% 0in /  0.0mm CLR
17:50 65.1 °F /  18.4 °C 40.8 °F /  4.9 °C 30.4in /  1027.8hPa WSW 5mph /  8.0km/h 9mph /  14.5km/h 41% 0in /  0.0mm CLR
17:55 64.9 °F /  18.3 °C 40.6 °F /  4.8 °C 30.4in /  1027.9hPa WSW 5mph /  8.0km/h 8mph /  12.9km/h 41% 0in /  0.0mm CLR
18:00 64.9 °F /  18.3 °C 40.6 °F /  4.8 °C 30.4in /  1027.9hPa SW 5mph /  8.0km/h 6mph /  9.7km/h 41% 0in /  0.0mm CLR
18:05 64.9 °F /  18.3 °C 40.6 °F /  4.8 °C 30.4in /  1027.9hPa SW 5mph /  8.0km/h 6mph /  9.7km/h 41% 0in /  0.0mm CLR
18:10 64.8 °F /  18.2 °C 40.5 °F /  4.7 °C 30.4in /  1028.1hPa SSW 5mph /  8.0km/h 5mph /  8.0km/h 41% 0in /  0.0mm CLR
18:15 64.6 °F /  18.1 °C 40.5 °F /  4.7 °C 30.4in /  1028.1hPa SSW 3mph /  4.8km/h 5mph /  8.0km/h 41% 0in /  0.0mm CLR
18:20 64.6 °F /  18.1 °C 41 °F /  5.0 °C 30.4in /  1028.1hPa SSW 3mph /  4.8km/h 6mph /  9.7km/h 42% 0in /  0.0mm CLR
18:25 64.4 °F /  18.0 °C 40.8 °F /  4.9 °C 30.4in /  1028.2hPa SSW 5mph /  8.0km/h 7mph /  11.3km/h 42% 0in /  0.0mm CLR
18:30 64 °F /  17.8 °C 40.5 °F /  4.7 °C 30.4in /  1028.2hPa SSW 5mph /  8.0km/h 7mph /  11.3km/h 42% 0in /  0.0mm CLR
18:35 63.9 °F /  17.7 °C 40.8 °F /  4.9 °C 30.4in /  1028.2hPa SSW 5mph /  8.0km/h 5mph /  8.0km/h 43% 0in /  0.0mm CLR
18:40 63.7 °F /  17.6 °C 40.8 °F /  4.9 °C 30.4in /  1028.4hPa SSW 5mph /  8.0km/h 5mph /  8.0km/h 43% 0in /  0.0mm CLR
18:45 63.5 °F /  17.5 °C 40.6 °F /  4.8 °C 30.4in /  1028.4hPa SSW 2mph /  3.2km/h 6mph /  9.7km/h 43% 0in /  0.0mm CLR
18:50 63.3 °F /  17.4 °C 40.5 °F /  4.7 °C 30.4in /  1028.4hPa SSW 2mph /  3.2km/h 7mph /  11.3km/h 43% 0in /  0.0mm CLR
18:55 63.3 °F /  17.4 °C 40.5 °F /  4.7 °C 30.4in /  1028.5hPa WSW 5mph /  8.0km/h 7mph /  11.3km/h 43% 0in /  0.0mm CLR
19:00 63 °F /  17.2 °C 40.6 °F /  4.8 °C 30.4in /  1028.5hPa WSW 5mph /  8.0km/h 6mph /  9.7km/h 44% 0in /  0.0mm CLR
19:05 62.8 °F /  17.1 °C 40.5 °F /  4.7 °C 30.4in /  1028.5hPa WSW 3mph /  4.8km/h 6mph /  9.7km/h 44% 0in /  0.0mm CLR
19:10 62.8 °F /  17.1 °C 40.5 °F /  4.7 °C 30.4in /  1028.9hPa WSW 3mph /  4.8km/h 6mph /  9.7km/h 44% 0in /  0.0mm CLR
19:15 62.8 °F /  17.1 °C 41.2 °F /  5.1 °C 30.4in /  1028.9hPa SW 3mph /  4.8km/h 5mph /  8.0km/h 45% 0in /  0.0mm CLR
19:20 62.4 °F /  16.9 °C 40.8 °F /  4.9 °C 30.4in /  1028.9hPa SSW 3mph /  4.8km/h 2mph /  3.2km/h 45% 0in /  0.0mm CLR
19:25 62.2 °F /  16.8 °C 40.6 °F /  4.8 °C 30.4in /  1029.2hPa South 1mph /  1.6km/h 4mph /  6.4km/h 45% 0in /  0.0mm CLR
19:30 61.9 °F /  16.6 °C 40.3 °F /  4.6 °C 30.4in /  1029.2hPa SW 1mph /  1.6km/h 4mph /  6.4km/h 45% 0in /  0.0mm CLR
19:35 61.7 °F /  16.5 °C 40.6 °F /  4.8 °C 30.4in /  1029.2hPa NW 2mph /  3.2km/h 3mph /  4.8km/h 46% 0in /  0.0mm CLR
19:40 61.5 °F /  16.4 °C 40.5 °F /  4.7 °C 30.4in /  1029.2hPa NW 2mph /  3.2km/h 3mph /  4.8km/h 46% 0in /  0.0mm CLR
19:45 61.3 °F /  16.3 °C 40.5 °F /  4.7 °C 30.4in /  1029.2hPa NW 1mph /  1.6km/h 4mph /  6.4km/h 46% 0in /  0.0mm CLR
19:50 61.3 °F /  16.3 °C 40.8 °F /  4.9 °C 30.4in /  1029.2hPa West 1mph /  1.6km/h 5mph /  8.0km/h 47% 0in /  0.0mm CLR
19:55 61.3 °F /  16.3 °C 40.8 °F /  4.9 °C 30.4in /  1029.3hPa SW 2mph /  3.2km/h 5mph /  8.0km/h 47% 0in /  0.0mm CLR
20:00 61.2 °F /  16.2 °C 40.8 °F /  4.9 °C 30.4in /  1029.3hPa SW 2mph /  3.2km/h 5mph /  8.0km/h 47% 0in /  0.0mm CLR
20:05 61 °F /  16.1 °C 41.2 °F /  5.1 °C 30.4in /  1029.3hPa SW 3mph /  4.8km/h 5mph /  8.0km/h 48% 0in /  0.0mm CLR
20:10 60.6 °F /  15.9 °C 40.8 °F /  4.9 °C 30.4in /  1029.3hPa SSW 3mph /  4.8km/h 7mph /  11.3km/h 48% 0in /  0.0mm CLR
20:15 60.3 °F /  15.7 °C 41 °F /  5.0 °C 30.4in /  1029.3hPa SSE 5mph /  8.0km/h 7mph /  11.3km/h 49% 0in /  0.0mm CLR
20:20 59.7 °F /  15.4 °C 41.2 °F /  5.1 °C 30.4in /  1029.3hPa SSE 5mph /  8.0km/h 7mph /  11.3km/h 50% 0in /  0.0mm CLR
20:25 59.7 °F /  15.4 °C 41 °F /  5.0 °C 30.4in /  1029.4hPa SSE 3mph /  4.8km/h 7mph /  11.3km/h 50% 0in /  0.0mm CLR
20:30 59.7 °F /  15.4 °C 41 °F /  5.0 °C 30.4in /  1029.4hPa South 3mph /  4.8km/h 6mph /  9.7km/h 50% 0in /  0.0mm CLR
20:35 59.7 °F /  15.4 °C 41.5 °F /  5.3 °C 30.4in /  1029.4hPa SW 5mph /  8.0km/h 6mph /  9.7km/h 51% 0in /  0.0mm CLR
20:40 59.5 °F /  15.3 °C 41.4 °F /  5.2 °C 30.4in /  1029.7hPa WSW 5mph /  8.0km/h 6mph /  9.7km/h 51% 0in /  0.0mm CLR
20:45 59.4 °F /  15.2 °C 41.2 °F /  5.1 °C 30.4in /  1029.7hPa WSW 5mph /  8.0km/h 6mph /  9.7km/h 51% 0in /  0.0mm CLR
20:50 59.4 °F /  15.2 °C 41.2 °F /  5.1 °C 30.4in /  1029.7hPa SW 5mph /  8.0km/h 7mph /  11.3km/h 51% 0in /  0.0mm CLR
20:55 59.5 °F /  15.3 °C 40.8 °F /  4.9 °C 30.4in /  1029.9hPa SW 5mph /  8.0km/h 5mph /  8.0km/h 50% 0in /  0.0mm CLR
21:00 59.4 °F /  15.2 °C 41.2 °F /  5.1 °C 30.4in /  1029.9hPa SW 5mph /  8.0km/h 4mph /  6.4km/h 51% 0in /  0.0mm CLR
21:05 58.6 °F /  14.8 °C 41 °F /  5.0 °C 30.4in /  1029.9hPa SSW 2mph /  3.2km/h 6mph /  9.7km/h 52% 0in /  0.0mm CLR
21:10 58.3 °F /  14.6 °C 41.2 °F /  5.1 °C 30.4in /  1030.2hPa ESE 2mph /  3.2km/h 6mph /  9.7km/h 53% 0in /  0.0mm CLR
21:15 58.3 °F /  14.6 °C 41.2 °F /  5.1 °C 30.4in /  1030.2hPa South 5mph /  8.0km/h 7mph /  11.3km/h 53% 0in /  0.0mm CLR
21:20 57.9 °F /  14.4 °C 40.8 °F /  4.9 °C 30.4in /  1030.2hPa South 5mph /  8.0km/h 7mph /  11.3km/h 53% 0in /  0.0mm CLR
21:25 57.6 °F /  14.2 °C 41 °F /  5.0 °C 30.4in /  1030.3hPa SSE 5mph /  8.0km/h 7mph /  11.3km/h 54% 0in /  0.0mm CLR
21:30 56.7 °F /  13.7 °C 41.2 °F /  5.1 °C 30.4in /  1030.3hPa SSE 5mph /  8.0km/h 8mph /  12.9km/h 56% 0in /  0.0mm CLR
21:35 56.1 °F /  13.4 °C 41.2 °F /  5.1 °C 30.4in /  1030.3hPa South 5mph /  8.0km/h 8mph /  12.9km/h 57% 0in /  0.0mm CLR
21:40 55.9 °F /  13.3 °C 40.8 °F /  4.9 °C 30.4in /  1030.3hPa SSW 5mph /  8.0km/h 5mph /  8.0km/h 57% 0in /  0.0mm CLR
21:45 55.9 °F /  13.3 °C 41 °F /  5.0 °C 30.4in /  1030.3hPa SSW 2mph /  3.2km/h 5mph /  8.0km/h 57% 0in /  0.0mm CLR
21:50 56.1 °F /  13.4 °C 41.2 °F /  5.1 °C 30.4in /  1030.3hPa SSW 2mph /  3.2km/h 5mph /  8.0km/h 57% 0in /  0.0mm CLR
21:55 56.1 °F /  13.4 °C 41.2 °F /  5.1 °C 30.4in /  1030.5hPa South 2mph /  3.2km/h 7mph /  11.3km/h 57% 0in /  0.0mm CLR
22:00 56.5 °F /  13.6 °C 41.4 °F /  5.2 °C 30.4in /  1030.5hPa South 2mph /  3.2km/h 6mph /  9.7km/h 57% 0in /  0.0mm CLR
22:05 56.1 °F /  13.4 °C 41.2 °F /  5.1 °C 30.4in /  1030.5hPa SW 5mph /  8.0km/h 5mph /  8.0km/h 57% 0in /  0.0mm CLR
22:10 55.8 °F /  13.2 °C 41.2 °F /  5.1 °C 30.4in /  1030.3hPa WSW 5mph /  8.0km/h 5mph /  8.0km/h 58% 0in /  0.0mm CLR
22:15 55.6 °F /  13.1 °C 41 °F /  5.0 °C 30.4in /  1030.3hPa WSW 2mph /  3.2km/h 5mph /  8.0km/h 58% 0in /  0.0mm CLR
22:20 55 °F /  12.8 °C 41 °F /  5.0 °C 30.4in /  1030.3hPa West 2mph /  3.2km/h 5mph /  8.0km/h 59% 0in /  0.0mm CLR
22:25 54.9 °F /  12.7 °C 41.2 °F /  5.1 °C 30.4in /  1030.6hPa West 2mph /  3.2km/h 5mph /  8.0km/h 60% 0in /  0.0mm CLR
22:30 54.7 °F /  12.6 °C 40.8 °F /  4.9 °C 30.4in /  1030.6hPa WSW 2mph /  3.2km/h 5mph /  8.0km/h 60% 0in /  0.0mm CLR
22:35 54.3 °F /  12.4 °C 41.2 °F /  5.1 °C 30.4in /  1030.6hPa WSW 2mph /  3.2km/h 5mph /  8.0km/h 61% 0in /  0.0mm CLR
22:40 54.1 °F /  12.3 °C 41 °F /  5.0 °C 30.4in /  1030.5hPa WSW 2mph /  3.2km/h 5mph /  8.0km/h 61% 0in /  0.0mm CLR
22:45 54.1 °F /  12.3 °C 41 °F /  5.0 °C 30.4in /  1030.5hPa West 2mph /  3.2km/h 5mph /  8.0km/h 61% 0in /  0.0mm CLR
22:50 54 °F /  12.2 °C 41.2 °F /  5.1 °C 30.4in /  1030.5hPa WNW 2mph /  3.2km/h 5mph /  8.0km/h 62% 0in /  0.0mm CLR
22:55 53.8 °F /  12.1 °C 41.2 °F /  5.1 °C 30.4in /  1030.8hPa West 2mph /  3.2km/h 4mph /  6.4km/h 62% 0in /  0.0mm CLR
23:00 53.4 °F /  11.9 °C 41.2 °F /  5.1 °C 30.4in /  1030.8hPa WSW 2mph /  3.2km/h 4mph /  6.4km/h 63% 0in /  0.0mm CLR
23:05 53.8 °F /  12.1 °C 41.5 °F /  5.3 °C 30.4in /  1030.8hPa SW 2mph /  3.2km/h 5mph /  8.0km/h 63% 0in /  0.0mm CLR
23:10 54 °F /  12.2 °C 41.2 °F /  5.1 °C 30.4in /  1030.9hPa SW 2mph /  3.2km/h 5mph /  8.0km/h 62% 0in /  0.0mm CLR
23:15 54.1 °F /  12.3 °C 41.4 °F /  5.2 °C 30.4in /  1030.9hPa South 3mph /  4.8km/h 6mph /  9.7km/h 62% 0in /  0.0mm CLR
23:20 54.1 °F /  12.3 °C 41.4 °F /  5.2 °C 30.4in /  1030.9hPa SE 3mph /  4.8km/h 5mph /  8.0km/h 62% 0in /  0.0mm CLR
23:25 54.1 °F /  12.3 °C 41.4 °F /  5.2 °C 30.5in /  1031.1hPa SE 2mph /  3.2km/h 5mph /  8.0km/h 62% 0in /  0.0mm CLR
23:30 54 °F /  12.2 °C 41.5 °F /  5.3 °C 30.5in /  1031.1hPa SE 2mph /  3.2km/h 5mph /  8.0km/h 63% 0in /  0.0mm CLR
23:35 53.8 °F /  12.1 °C 41.9 °F /  5.5 °C 30.5in /  1031.1hPa SSE 2mph /  3.2km/h 5mph /  8.0km/h 64% 0in /  0.0mm CLR
23:40 53.8 °F /  12.1 °C 41.9 °F /  5.5 °C 30.5in /  1031.1hPa SE 2mph /  3.2km/h 5mph /  8.0km/h 64% 0in /  0.0mm CLR
23:45 53.2 °F /  11.8 °C 41.7 °F /  5.4 °C 30.5in /  1031.1hPa SE 2mph /  3.2km/h 5mph /  8.0km/h 65% 0in /  0.0mm CLR
23:50 53.1 °F /  11.7 °C 42.1 °F /  5.6 °C 30.5in /  1031.1hPa SSE 2mph /  3.2km/h 5mph /  8.0km/h 66% 0in /  0.0mm CLR
23:55 53.2 °F /  11.8 °C 41.7 °F /  5.4 °C 30.5in /  1031.1hPa SSW 2mph /  3.2km/h 6mph /  9.7km/h 65% 0in /  0.0mm CLR
Murcia-Puente Tocinos, España
Compliments of Weather Underground - 2.75 mb

La estación de MeteoMurcia.com, publica sus datos en los siguientes proyectos:

Weather Underground PWS IMURCIAP2 Meteoclimatic www.awekas.at

W3Counter
Web Analytics